Česky Dansk Deutsch English Español Suomi Français Magyar Italiano Nederlands norsk Polski Português svenska Türkçe

 

Het Weer

Salta Aerodrome (Argentinië)

07:00, 31 juli 2016 (GMT)

NWNNE
WE
SWSSE
Home            
Salta Aerodrome Jujuy Aerodrome Oran Aerodrome Tucuman Aerodrome Rivadavia Tartagal Aerodrome La Quiaca Observatorio Santiago Del Estero Aero. Yacuiba Tarija Tinogasta Catamarca Aero. Villamontes Las Lomitas La Rioja Aero. Chilecito Antofagasta Chanaral Presidencia Roque Saenz Pena Aerodrome Copiapo Camiri Nueva Asuncion Villa De Maria Del Rio Seco

Om een weerknop op uw website of weblog te plaatsen, copieer onderstaande code en plak die in uw pagina. In het eerste vakje staat HTML-code, in het tweede vakje UBB-code.


Add to Google

Details

Wind speed:2 bf, 4 kn, 2.1 m/s, 4.6 miles/h, 7.4 km/h
Wind direction:SSW, 200°
Visibility:Greater than 10000 m, 10 km, 32800 ft, 6.2 miles
Clouds:CAVOC
Temperature:5°C, 41°F
Dew-point:4°C, 39°F
Atmospheric pressure:1014 hPa, 760.6 mmHg, 29.94 inHg, 1.001 atm
Relative humidity:93.2 %
METAR:SASA 310700Z 20004KT CAVOK 05/04 Q1014

Snelkoppelingen

Actuele weersinformatie van de hele wereld. Voeg locaties toe met het plus (+) symbool. Deze snelkoppelingen kunnen worden toegevoegd aan Google.

Lid van de Technetium groep

website free tracking
StatCounter NetStat W3C Validator

19-01-2021 07:09:09
astro.technetium.be money.technetium.be phote.technetium.be tafeltennistafel.technetium.be www.ligfiets.net